createdAt,value
2023-02-27T00:00:54.255Z,86.55
2023-02-27T00:01:54.244Z,86.69
2023-02-27T00:02:54.285Z,86.13
2023-02-27T00:03:54.279Z,86.69
2023-02-27T00:04:54.206Z,86.59
2023-02-27T00:05:54.242Z,86.55
2023-02-27T00:06:54.184Z,86.69
2023-02-27T00:07:54.174Z,86.55
2023-02-27T00:08:54.230Z,86.55
2023-02-27T00:09:54.191Z,86.69
2023-02-27T00:10:54.168Z,86.55
2023-02-27T00:11:54.244Z,86.65
2023-02-27T00:12:54.116Z,86.55
2023-02-27T00:13:54.121Z,86.69
2023-02-27T00:14:54.112Z,86.80
2023-02-27T00:15:54.110Z,85.96
2023-02-27T00:16:54.075Z,86.80
2023-02-27T00:17:54.080Z,86.55
2023-02-27T00:18:54.085Z,86.55
2023-02-27T00:19:54.036Z,86.76
2023-02-27T00:20:54.051Z,86.65
2023-02-27T00:21:54.020Z,86.65
2023-02-27T00:22:54.036Z,86.13
2023-02-27T00:23:54.032Z,85.93
2023-02-27T00:24:53.990Z,86.44
2023-02-27T00:25:53.995Z,86.13
2023-02-27T00:26:53.988Z,86.24
2023-02-27T00:27:53.959Z,86.24
2023-02-27T00:28:53.942Z,86.13
2023-02-27T00:29:53.968Z,86.13
2023-02-27T00:30:53.974Z,86.03
2023-02-27T00:31:54.002Z,86.65
2023-02-27T00:32:53.904Z,86.44
2023-02-27T00:33:53.890Z,86.76
2023-02-27T00:34:53.875Z,86.55
2023-02-27T00:35:53.926Z,86.65
2023-02-27T00:36:53.855Z,86.34
2023-02-27T00:37:53.848Z,86.24
2023-02-27T00:38:53.843Z,86.34
2023-02-27T00:39:53.816Z,86.65
2023-02-27T00:40:53.827Z,86.76
2023-02-27T00:41:53.840Z,86.44
2023-02-27T00:42:53.852Z,86.24
2023-02-27T00:43:53.768Z,86.03
2023-02-27T00:44:53.763Z,86.03
2023-02-27T00:45:53.752Z,85.93
2023-02-27T00:46:53.842Z,86.69
2023-02-27T00:47:53.742Z,86.55
2023-02-27T00:48:53.743Z,86.49
2023-02-27T00:49:53.710Z,86.86
2023-02-27T00:50:53.704Z,86.76
2023-02-27T00:51:53.679Z,86.49
2023-02-27T00:52:53.666Z,86.59
2023-02-27T00:53:53.718Z,86.76
2023-02-27T00:54:53.656Z,86.49
2023-02-27T00:55:53.638Z,86.59
2023-02-27T00:56:53.622Z,86.49
2023-02-27T00:57:53.648Z,86.59
2023-02-27T00:58:53.642Z,86.17
2023-02-27T00:59:53.628Z,86.38
2023-02-27T01:00:53.631Z,86.07
2023-02-27T01:01:53.570Z,86.49
2023-02-27T01:02:53.602Z,86.49
2023-02-27T01:03:53.550Z,86.49
2023-02-27T01:04:53.533Z,86.69
2023-02-27T01:05:53.585Z,86.94
2023-02-27T01:06:53.511Z,86.94
2023-02-27T01:07:53.529Z,86.52
2023-02-27T01:08:53.507Z,86.63
2023-02-27T01:09:53.494Z,86.83
2023-02-27T01:10:53.476Z,86.63
2023-02-27T01:11:53.478Z,86.52
2023-02-27T01:12:53.463Z,86.42
2023-02-27T01:13:53.444Z,86.52
2023-02-27T01:14:53.457Z,86.73
2023-02-27T01:15:53.415Z,86.63
2023-02-27T01:16:53.427Z,86.83
2023-02-27T01:17:53.570Z,86.83
2023-02-27T01:18:53.379Z,86.42
2023-02-27T01:19:53.380Z,86.63
2023-02-27T01:20:53.360Z,86.52
2023-02-27T01:21:53.354Z,86.73
2023-02-27T01:22:53.334Z,86.52
2023-02-27T01:23:53.346Z,86.94
2023-02-27T01:24:53.359Z,86.11
2023-02-27T01:25:53.307Z,86.21
2023-02-27T01:26:53.372Z,86.21
2023-02-27T01:27:53.283Z,86.32
2023-02-27T01:28:53.276Z,86.00
2023-02-27T01:29:53.290Z,86.21
2023-02-27T01:30:53.349Z,86.21
2023-02-27T01:31:53.390Z,86.49
2023-02-27T01:32:53.228Z,86.69
2023-02-27T01:33:53.232Z,86.49
2023-02-27T01:34:53.264Z,86.80
2023-02-27T01:35:53.271Z,86.49
2023-02-27T01:36:53.211Z,86.69
2023-02-27T01:37:53.184Z,86.17
2023-02-27T01:38:53.196Z,86.80
2023-02-27T01:39:53.148Z,87.11
2023-02-27T01:40:53.195Z,86.63
2023-02-27T01:41:53.152Z,86.59
2023-02-27T01:42:53.112Z,86.59
2023-02-27T01:43:53.105Z,86.59
2023-02-27T01:44:53.109Z,86.49
2023-02-27T01:45:53.185Z,86.49
2023-02-27T01:46:53.104Z,86.44
2023-02-27T01:47:53.095Z,86.59
2023-02-27T01:48:53.062Z,86.80
2023-02-27T01:49:53.118Z,86.76
2023-02-27T01:50:53.046Z,86.38
2023-02-27T01:51:53.024Z,86.27
2023-02-27T01:52:53.032Z,86.38
2023-02-27T01:53:53.103Z,86.49
2023-02-27T01:54:52.984Z,86.59
2023-02-27T01:55:52.967Z,86.44
2023-02-27T01:56:52.973Z,86.34
2023-02-27T01:57:52.948Z,86.27
2023-02-27T01:58:52.933Z,86.44
2023-02-27T01:59:52.966Z,85.96
2023-02-27T02:00:53.018Z,86.44
2023-02-27T02:01:52.915Z,86.65
2023-02-27T02:02:52.913Z,86.17
2023-02-27T02:03:52.894Z,86.13
2023-02-27T02:04:52.876Z,86.13
2023-02-27T02:05:52.918Z,86.13
2023-02-27T02:06:52.847Z,86.17
2023-02-27T02:07:52.830Z,86.55
2023-02-27T02:08:52.830Z,86.55
2023-02-27T02:09:52.811Z,86.07
2023-02-27T02:10:52.820Z,86.27
2023-02-27T02:11:52.823Z,86.13
2023-02-27T02:12:52.781Z,86.34
2023-02-27T02:13:52.786Z,86.59
2023-02-27T02:14:52.749Z,86.44
2023-02-27T02:15:52.741Z,86.44
2023-02-27T02:16:52.809Z,86.55
2023-02-27T02:17:52.732Z,86.65
2023-02-27T02:18:52.762Z,86.69
2023-02-27T02:19:52.693Z,86.44
2023-02-27T02:20:52.688Z,86.24
2023-02-27T02:21:52.669Z,85.93
2023-02-27T02:22:52.682Z,85.61
2023-02-27T02:23:52.768Z,86.24
2023-02-27T02:24:52.640Z,86.03
2023-02-27T02:25:52.633Z,86.03
2023-02-27T02:26:52.654Z,85.93
2023-02-27T02:27:52.671Z,85.93
2023-02-27T02:28:52.592Z,85.82
2023-02-27T02:29:52.608Z,86.13
2023-02-27T02:30:52.711Z,85.93
2023-02-27T02:31:52.759Z,86.24
2023-02-27T02:32:52.548Z,85.93
2023-02-27T02:33:52.554Z,85.93
2023-02-27T02:34:52.547Z,86.24
2023-02-27T02:35:52.572Z,86.24
2023-02-27T02:36:52.539Z,86.07
2023-02-27T02:37:52.593Z,86.34
2023-02-27T02:38:52.486Z,85.93
2023-02-27T02:39:52.467Z,86.24
2023-02-27T02:40:52.466Z,86.24
2023-02-27T02:41:52.553Z,85.72
2023-02-27T02:42:53.375Z,86.13
2023-02-27T02:43:52.441Z,85.93
2023-02-27T02:44:52.415Z,86.13
2023-02-27T02:45:52.497Z,85.93
2023-02-27T02:46:52.414Z,85.93
2023-02-27T02:47:52.397Z,86.24
2023-02-27T02:48:52.385Z,86.24
2023-02-27T02:49:52.357Z,85.96
2023-02-27T02:50:52.372Z,86.03
2023-02-27T02:51:52.349Z,85.72
2023-02-27T02:52:52.327Z,85.96
2023-02-27T02:53:52.342Z,85.93
2023-02-27T02:54:52.347Z,85.93
2023-02-27T02:55:52.287Z,86.17
2023-02-27T02:56:52.286Z,85.51
2023-02-27T02:57:52.273Z,86.13
2023-02-27T02:58:52.254Z,85.82
2023-02-27T02:59:52.301Z,85.93
2023-02-27T03:00:52.257Z,85.51
2023-02-27T03:01:52.364Z,85.96
2023-02-27T03:02:52.212Z,85.96
2023-02-27T03:03:52.224Z,86.07
2023-02-27T03:04:52.199Z,86.03
2023-02-27T03:05:52.210Z,86.07
2023-02-27T03:06:52.211Z,86.07
2023-02-27T03:07:52.251Z,86.24
2023-02-27T03:08:52.146Z,86.07
2023-02-27T03:09:52.142Z,86.27
2023-02-27T03:10:52.126Z,85.96
2023-02-27T03:11:52.143Z,86.13
2023-02-27T03:12:52.113Z,86.07
2023-02-27T03:13:52.090Z,85.96
2023-02-27T03:14:52.079Z,85.93
2023-02-27T03:15:52.093Z,86.27
2023-02-27T03:16:52.051Z,85.75
2023-02-27T03:17:52.081Z,86.17
2023-02-27T03:18:52.052Z,85.96
2023-02-27T03:19:52.016Z,85.86
2023-02-27T03:20:52.009Z,86.07
2023-02-27T03:21:52.049Z,85.75
2023-02-27T03:22:52.004Z,85.96
2023-02-27T03:23:52.050Z,86.13
2023-02-27T03:24:51.958Z,86.07
2023-02-27T03:25:51.955Z,85.96
2023-02-27T03:26:51.958Z,86.27
2023-02-27T03:27:51.997Z,85.75
2023-02-27T03:28:51.944Z,86.38
2023-02-27T03:29:51.932Z,85.75
2023-02-27T03:30:52.073Z,85.96
2023-02-27T03:31:52.006Z,85.65
2023-02-27T03:32:51.890Z,85.75
2023-02-27T03:33:51.858Z,85.75
2023-02-27T03:34:51.849Z,86.07
2023-02-27T03:35:51.850Z,85.96
2023-02-27T03:36:51.827Z,85.75
2023-02-27T03:37:51.816Z,85.96
2023-02-27T03:38:51.925Z,85.86
2023-02-27T03:39:51.798Z,85.96
2023-02-27T03:40:51.781Z,85.96
2023-02-27T03:41:51.806Z,85.75
2023-02-27T03:42:51.779Z,85.96
2023-02-27T03:43:51.745Z,85.75
2023-02-27T03:44:52.489Z,85.75
2023-02-27T03:45:51.726Z,85.86
2023-02-27T03:46:51.725Z,85.96
2023-02-27T03:47:51.712Z,85.75
2023-02-27T03:48:51.685Z,85.96
2023-02-27T03:49:51.676Z,86.07
2023-02-27T03:50:51.666Z,85.96
2023-02-27T03:51:51.655Z,85.96
2023-02-27T03:52:51.661Z,85.86
2023-02-27T03:53:51.680Z,85.44
2023-02-27T03:54:51.646Z,85.86
2023-02-27T03:55:51.605Z,85.75
2023-02-27T03:56:51.605Z,85.75
2023-02-27T03:57:51.617Z,85.75
2023-02-27T03:58:51.581Z,85.75
2023-02-27T03:59:51.628Z,85.65
2023-02-27T04:00:51.561Z,85.96
2023-02-27T04:01:51.602Z,85.86
2023-02-27T04:02:51.688Z,85.96
2023-02-27T04:03:51.536Z,85.75
2023-02-27T04:04:51.528Z,86.07
2023-02-27T04:05:51.536Z,85.96
2023-02-27T04:06:51.485Z,85.86
2023-02-27T04:07:51.471Z,85.86
2023-02-27T04:08:51.621Z,85.75
2023-02-27T04:09:51.446Z,85.44
2023-02-27T04:10:51.471Z,85.55
2023-02-27T04:11:51.479Z,85.34
2023-02-27T04:12:51.413Z,85.65
2023-02-27T04:13:51.424Z,85.44
2023-02-27T04:14:51.394Z,85.65
2023-02-27T04:15:51.433Z,85.75
2023-02-27T04:16:51.368Z,85.44
2023-02-27T04:17:51.413Z,85.55
2023-02-27T04:18:51.372Z,85.44
2023-02-27T04:19:51.411Z,85.55
2023-02-27T04:20:51.339Z,85.55
2023-02-27T04:21:51.327Z,85.13
2023-02-27T04:22:51.298Z,85.55
2023-02-27T04:23:51.333Z,85.44
2023-02-27T04:24:51.287Z,86.00
2023-02-27T04:25:51.278Z,86.07
2023-02-27T04:26:51.305Z,85.75
2023-02-27T04:27:51.265Z,85.65
2023-02-27T04:28:51.242Z,85.96
2023-02-27T04:29:51.302Z,85.75
2023-02-27T04:30:51.287Z,85.96
2023-02-27T04:31:51.356Z,85.96
2023-02-27T04:32:51.262Z,85.96
2023-02-27T04:33:51.204Z,85.44
2023-02-27T04:34:51.192Z,85.13
2023-02-27T04:35:51.290Z,85.55
2023-02-27T04:36:51.154Z,85.24
2023-02-27T04:37:51.145Z,85.34
2023-02-27T04:38:51.154Z,85.17
2023-02-27T04:39:51.121Z,85.44
2023-02-27T04:40:51.112Z,85.90
2023-02-27T04:41:51.130Z,86.00
2023-02-27T04:42:51.108Z,86.00
2023-02-27T04:43:51.107Z,85.90
2023-02-27T04:44:51.058Z,85.75
2023-02-27T04:45:51.107Z,85.55
2023-02-27T04:46:51.035Z,85.28
2023-02-27T04:47:51.098Z,85.28
2023-02-27T04:48:51.022Z,85.28
2023-02-27T04:49:51.007Z,85.75
2023-02-27T04:50:51.001Z,85.90
2023-02-27T04:51:50.982Z,85.86
2023-02-27T04:52:50.970Z,85.80
2023-02-27T04:53:51.005Z,85.80
2023-02-27T04:54:50.954Z,85.75
2023-02-27T04:55:50.942Z,85.80
2023-02-27T04:56:50.953Z,85.90
2023-02-27T04:57:50.928Z,86.00
2023-02-27T04:58:50.926Z,85.90
2023-02-27T04:59:50.951Z,85.90
2023-02-27T05:00:50.912Z,85.69
2023-02-27T05:01:50.945Z,85.80
2023-02-27T05:02:50.921Z,85.80
2023-02-27T05:03:50.864Z,85.90
2023-02-27T05:04:50.838Z,85.69
2023-02-27T05:05:50.859Z,85.69
2023-02-27T05:06:50.835Z,85.80
2023-02-27T05:07:50.804Z,85.59
2023-02-27T05:08:50.803Z,85.28
2023-02-27T05:09:50.796Z,85.17
2023-02-27T05:10:50.765Z,85.69
2023-02-27T05:11:50.798Z,85.80
2023-02-27T05:12:50.768Z,85.90
2023-02-27T05:13:50.747Z,86.00
2023-02-27T05:14:50.753Z,85.90
2023-02-27T05:15:50.798Z,85.90
2023-02-27T05:16:50.700Z,86.00
2023-02-27T05:17:50.750Z,85.80
2023-02-27T05:18:50.695Z,85.59
2023-02-27T05:19:50.668Z,85.49
2023-02-27T05:20:50.690Z,85.69
2023-02-27T05:21:50.641Z,85.38
2023-02-27T05:22:50.644Z,85.38
2023-02-27T05:23:50.717Z,85.52
2023-02-27T05:24:50.616Z,85.52
2023-02-27T05:25:50.610Z,85.63
2023-02-27T05:26:50.597Z,85.21
2023-02-27T05:27:50.596Z,85.52
2023-02-27T05:28:50.583Z,85.73
2023-02-27T05:29:50.574Z,85.83
2023-02-27T05:30:50.573Z,85.83
2023-02-27T05:31:50.718Z,85.77
2023-02-27T05:32:50.523Z,85.77
2023-02-27T05:33:50.523Z,85.88
2023-02-27T05:34:50.523Z,85.83
2023-02-27T05:35:50.558Z,85.94
2023-02-27T05:36:50.487Z,85.94
2023-02-27T05:37:50.468Z,85.73
2023-02-27T05:38:50.461Z,85.83
2023-02-27T05:39:50.436Z,85.73
2023-02-27T05:40:50.430Z,85.73
2023-02-27T05:41:50.460Z,85.42
2023-02-27T05:42:50.415Z,85.63
2023-02-27T05:43:50.427Z,85.52
2023-02-27T05:44:50.413Z,85.83
2023-02-27T05:45:50.407Z,85.42
2023-02-27T05:46:50.378Z,85.52
2023-02-27T05:47:50.372Z,85.31
2023-02-27T05:48:50.338Z,85.28
2023-02-27T05:49:50.328Z,85.17
2023-02-27T05:50:50.310Z,85.28
2023-02-27T05:51:50.303Z,85.28
2023-02-27T05:52:50.300Z,85.42
2023-02-27T05:53:50.296Z,85.28
2023-02-27T05:54:50.284Z,85.38
2023-02-27T05:55:50.256Z,85.49
2023-02-27T05:56:50.248Z,85.59
2023-02-27T05:57:50.237Z,85.59
2023-02-27T05:58:50.222Z,85.59
2023-02-27T05:59:50.249Z,85.38
2023-02-27T06:00:50.215Z,85.59
2023-02-27T06:01:50.212Z,85.55
2023-02-27T06:02:50.258Z,85.28
2023-02-27T06:03:50.172Z,85.80
2023-02-27T06:04:50.159Z,84.96
2023-02-27T06:05:50.208Z,85.28
2023-02-27T06:06:50.223Z,85.06
2023-02-27T06:07:50.152Z,84.96
2023-02-27T06:08:50.119Z,85.28
2023-02-27T06:09:50.139Z,84.96
2023-02-27T06:10:50.095Z,84.96
2023-02-27T06:11:50.117Z,84.65
2023-02-27T06:12:50.082Z,84.65
2023-02-27T06:13:50.091Z,84.86
2023-02-27T06:14:50.045Z,85.65
2023-02-27T06:15:50.040Z,85.65
2023-02-27T06:16:50.110Z,85.65
2023-02-27T06:17:50.045Z,85.65
2023-02-27T06:18:50.032Z,85.24
2023-02-27T06:19:50.012Z,85.03
2023-02-27T06:20:49.999Z,85.03
2023-02-27T06:21:49.997Z,84.47
2023-02-27T06:22:49.959Z,84.72
2023-02-27T06:23:50.148Z,84.82
2023-02-27T06:24:49.980Z,84.68
2023-02-27T06:25:49.930Z,84.61
2023-02-27T06:26:49.940Z,84.58
2023-02-27T06:27:49.907Z,84.58
2023-02-27T06:28:49.896Z,84.58
2023-02-27T06:29:49.904Z,84.58
2023-02-27T06:30:49.899Z,84.47
2023-02-27T06:31:49.972Z,84.27
2023-02-27T06:32:49.881Z,84.43
2023-02-27T06:33:49.836Z,84.22
2023-02-27T06:34:49.861Z,83.91
2023-02-27T06:35:50.017Z,84.53
2023-02-27T06:36:49.850Z,84.43
2023-02-27T06:37:49.863Z,84.22
2023-02-27T06:38:49.770Z,84.22
2023-02-27T06:39:49.778Z,83.70
2023-02-27T06:40:49.760Z,84.22
2023-02-27T06:41:49.851Z,84.22
2023-02-27T06:42:49.779Z,84.01
2023-02-27T06:43:50.717Z,83.91
2023-02-27T06:44:49.706Z,84.33
2023-02-27T06:45:49.775Z,84.53
2023-02-27T06:46:49.681Z,84.33
2023-02-27T06:47:50.011Z,84.43
2023-02-27T06:48:49.665Z,84.33
2023-02-27T06:49:49.654Z,84.08
2023-02-27T06:50:50.146Z,84.12
2023-02-27T06:51:49.655Z,84.22
2023-02-27T06:52:49.644Z,84.64
2023-02-27T06:53:49.712Z,83.91
2023-02-27T06:54:49.623Z,84.01
2023-02-27T06:55:49.614Z,84.01
2023-02-27T06:56:49.617Z,84.22
2023-02-27T06:57:49.595Z,84.33
2023-02-27T06:58:49.548Z,84.12
2023-02-27T06:59:49.573Z,84.33
2023-02-27T07:00:49.540Z,84.01
2023-02-27T07:01:49.514Z,84.05
2023-02-27T07:02:49.617Z,84.22
2023-02-27T07:03:49.505Z,84.12
2023-02-27T07:04:49.587Z,84.27
2023-02-27T07:05:49.530Z,84.01
2023-02-27T07:07:35.978Z,84.01
2023-02-27T07:07:53.222Z,83.91
2023-02-27T07:09:00.798Z,84.01
2023-02-27T07:09:51.648Z,84.33
2023-02-27T07:10:50.290Z,84.29
2023-02-27T07:11:49.502Z,84.22
2023-02-27T07:12:49.529Z,83.91
2023-02-27T07:13:49.390Z,84.12
2023-02-27T07:14:50.327Z,83.70
2023-02-27T07:15:49.371Z,84.08
2023-02-27T07:16:49.412Z,84.12
2023-02-27T07:17:50.306Z,84.01
2023-02-27T07:18:49.327Z,83.81
2023-02-27T07:19:49.392Z,83.91
2023-02-27T07:20:50.281Z,83.91
2023-02-27T07:21:49.324Z,83.91
2023-02-27T07:22:49.318Z,83.91
2023-02-27T07:23:49.354Z,83.81
2023-02-27T07:24:49.294Z,83.87
2023-02-27T07:25:49.264Z,83.70
2023-02-27T07:26:49.322Z,83.98
2023-02-27T07:27:49.449Z,83.91
2023-02-27T07:28:49.213Z,84.01
2023-02-27T07:29:49.249Z,83.70
2023-02-27T07:30:49.259Z,83.91
2023-02-27T07:31:49.296Z,84.12
2023-02-27T07:32:49.189Z,84.22
2023-02-27T07:33:49.184Z,83.91
2023-02-27T07:34:49.156Z,84.12
2023-02-27T07:35:49.230Z,84.33
2023-02-27T07:36:49.207Z,84.33
2023-02-27T07:37:49.113Z,83.98
2023-02-27T07:38:49.132Z,83.87
2023-02-27T07:39:49.140Z,84.22
2023-02-27T07:40:49.090Z,83.67
2023-02-27T07:41:49.224Z,83.67
2023-02-27T07:42:49.397Z,83.87
2023-02-27T07:43:49.117Z,84.19
2023-02-27T07:44:49.050Z,83.98
2023-02-27T07:45:49.119Z,83.87
2023-02-27T07:46:49.120Z,83.67
2023-02-27T07:47:49.040Z,83.67
2023-02-27T07:48:49.006Z,83.87
2023-02-27T07:49:49.057Z,83.77
2023-02-27T07:50:49.232Z,83.67
2023-02-27T07:51:49.804Z,83.98
2023-02-27T07:52:48.947Z,83.77
2023-02-27T07:53:48.991Z,83.94
2023-02-27T07:54:48.963Z,84.05
2023-02-27T07:55:48.949Z,83.73
2023-02-27T07:56:48.928Z,83.63
2023-02-27T07:57:48.910Z,83.32
2023-02-27T07:58:49.009Z,83.11
2023-02-27T07:59:48.891Z,83.32
2023-02-27T08:00:48.953Z,83.42
2023-02-27T08:01:48.875Z,83.42
2023-02-27T08:02:49.776Z,83.42
2023-02-27T08:03:48.817Z,83.32
2023-02-27T08:04:48.922Z,83.42
2023-02-27T08:05:48.996Z,83.22
2023-02-27T08:06:48.794Z,82.55
2023-02-27T08:07:48.854Z,83.07
2023-02-27T08:08:48.771Z,82.76
2023-02-27T08:09:48.759Z,83.17
2023-02-27T08:10:48.774Z,83.38
2023-02-27T08:11:49.307Z,83.28
2023-02-27T08:12:48.722Z,83.14
2023-02-27T08:14:00.039Z,83.28
2023-02-27T08:14:49.808Z,83.07
2023-02-27T08:15:48.712Z,83.14
2023-02-27T08:16:49.087Z,82.93
2023-02-27T08:17:48.724Z,82.82
2023-02-27T08:18:48.659Z,83.00
2023-02-27T08:19:48.648Z,82.79
2023-02-27T08:20:48.634Z,82.86
2023-02-27T08:21:48.627Z,82.68
2023-02-27T08:22:48.741Z,83.10
2023-02-27T08:23:48.646Z,82.86
2023-02-27T08:26:05.415Z,82.19
2023-02-27T08:27:05.223Z,81.68
2023-02-27T08:28:05.243Z,81.88
2023-02-27T08:29:05.346Z,82.09
2023-02-27T08:30:05.202Z,82.71
2023-02-27T08:31:05.304Z,82.81
2023-02-27T08:32:05.313Z,82.75
2023-02-27T08:33:05.143Z,82.71
2023-02-27T08:34:10.279Z,82.92
2023-02-27T08:35:06.149Z,82.92
2023-02-27T08:36:05.240Z,82.78
2023-02-27T08:37:05.115Z,82.78
2023-02-27T08:38:05.083Z,82.67
2023-02-27T08:39:05.109Z,82.88
2023-02-27T08:40:05.104Z,82.98
2023-02-27T08:41:05.099Z,82.88
2023-02-27T08:42:05.170Z,82.09
2023-02-27T08:43:05.068Z,82.92
2023-02-27T08:44:05.034Z,82.92
2023-02-27T08:45:05.011Z,82.92
2023-02-27T08:46:05.228Z,82.71
2023-02-27T08:47:05.078Z,82.81
2023-02-27T08:48:05.083Z,82.71
2023-02-27T08:49:04.990Z,82.98
2023-02-27T08:50:04.963Z,82.88
2023-02-27T08:51:05.055Z,82.15
2023-02-27T08:52:04.936Z,82.88
2023-02-27T08:53:05.149Z,81.88
2023-02-27T08:54:04.917Z,82.09
2023-02-27T08:55:04.928Z,81.95
2023-02-27T08:56:04.888Z,82.15
2023-02-27T08:57:04.867Z,82.05
2023-02-27T08:58:04.907Z,82.05
2023-02-27T08:59:04.906Z,82.05
2023-02-27T09:00:04.872Z,81.91
2023-02-27T09:01:04.884Z,82.12
2023-02-27T09:02:04.815Z,81.81
2023-02-27T09:03:04.897Z,82.05
2023-02-27T09:04:04.842Z,82.01
2023-02-27T09:05:04.851Z,82.01
2023-02-27T09:06:04.824Z,81.98
2023-02-27T09:07:04.769Z,81.70
2023-02-27T09:08:04.753Z,81.81
2023-02-27T09:09:04.753Z,81.70
2023-02-27T09:10:04.771Z,81.91
2023-02-27T09:11:04.738Z,82.01
2023-02-27T09:12:04.706Z,82.12
2023-02-27T09:13:04.688Z,81.81
2023-02-27T09:14:04.774Z,81.98
2023-02-27T09:15:04.677Z,81.77
2023-02-27T09:16:04.678Z,81.67
2023-02-27T09:17:04.829Z,81.87
2023-02-27T09:18:04.662Z,81.35
2023-02-27T09:19:04.676Z,81.46
2023-02-27T09:20:04.619Z,81.42
2023-02-27T09:21:04.702Z,81.35
2023-02-27T09:22:04.596Z,81.52
2023-02-27T09:23:04.709Z,81.63
2023-02-27T09:24:17.161Z,81.21
2023-02-27T09:25:05.589Z,81.07
2023-02-27T09:26:04.603Z,81.21
2023-02-27T09:27:04.557Z,81.59
2023-02-27T09:28:04.530Z,80.87
2023-02-27T09:29:04.630Z,81.18
2023-02-27T09:30:04.542Z,81.18
2023-02-27T09:31:04.571Z,80.97
2023-02-27T09:32:04.662Z,81.18
2023-02-27T09:33:04.473Z,81.38
2023-02-27T09:34:04.474Z,81.07
2023-02-27T09:35:04.716Z,80.87
2023-02-27T09:36:04.595Z,80.97
2023-02-27T09:37:04.444Z,80.87
2023-02-27T09:38:04.458Z,81.28
2023-02-27T09:39:04.411Z,81.07
2023-02-27T09:40:04.446Z,80.93
2023-02-27T09:41:04.473Z,81.76
2023-02-27T09:42:04.573Z,81.14
2023-02-27T09:43:04.403Z,81.18
2023-02-27T09:44:04.347Z,80.93
2023-02-27T09:45:06.081Z,81.14
2023-02-27T09:46:04.384Z,81.14
2023-02-27T09:47:04.434Z,81.45
2023-02-27T09:48:04.306Z,81.24
2023-02-27T09:49:04.311Z,81.41
2023-02-27T09:50:04.331Z,81.51
2023-02-27T09:51:04.288Z,81.10
2023-02-27T09:52:04.284Z,80.48
2023-02-27T09:53:04.328Z,80.58
2023-02-27T09:54:04.273Z,81.10
2023-02-27T09:55:04.267Z,81.00
2023-02-27T09:56:07.182Z,81.00
2023-02-27T09:57:04.234Z,81.21
2023-02-27T09:58:04.212Z,81.00
2023-02-27T09:59:04.382Z,80.83
2023-02-27T10:00:04.200Z,81.24
2023-02-27T10:01:04.209Z,81.14
2023-02-27T10:02:04.301Z,81.56
2023-02-27T10:03:04.229Z,81.66
2023-02-27T10:04:04.120Z,81.66
2023-02-27T10:05:04.222Z,81.86
2023-02-27T10:06:05.682Z,81.96
2023-02-27T10:07:04.108Z,81.86
2023-02-27T10:08:04.069Z,81.76
2023-02-27T10:09:04.066Z,81.72
2023-02-27T10:10:04.050Z,81.72
2023-02-27T10:11:04.068Z,81.51
2023-02-27T10:12:05.814Z,81.21
2023-02-27T10:13:04.025Z,80.58
2023-02-27T10:14:04.011Z,80.62
2023-02-27T10:15:03.990Z,81.24
2023-02-27T10:16:04.027Z,81.24
2023-02-27T10:17:04.119Z,81.66
2023-02-27T10:18:16.676Z,81.24
2023-02-27T10:19:04.971Z,80.93
2023-02-27T10:20:03.970Z,81.35
2023-02-27T10:21:03.998Z,81.45
2023-02-27T10:22:03.917Z,81.59
2023-02-27T10:23:04.019Z,81.56
2023-02-27T10:24:06.023Z,81.66
2023-02-27T10:25:03.890Z,81.96
2023-02-27T10:26:03.888Z,81.66
2023-02-27T10:27:03.865Z,81.38
2023-02-27T10:28:03.873Z,81.35
2023-02-27T10:29:03.940Z,81.56
2023-02-27T10:30:03.833Z,81.56
2023-02-27T10:31:03.933Z,81.56
2023-02-27T10:32:03.872Z,81.66
2023-02-27T10:33:03.818Z,81.86
2023-02-27T10:34:03.905Z,82.55
2023-02-27T10:35:04.070Z,81.62
2023-02-27T10:36:03.875Z,82.55
2023-02-27T10:37:03.848Z,81.79
2023-02-27T10:38:04.675Z,81.89
2023-02-27T10:39:03.770Z,81.37
2023-02-27T10:40:04.585Z,81.27
2023-02-27T10:41:03.749Z,81.37
2023-02-27T10:42:03.737Z,81.58
2023-02-27T10:43:06.215Z,81.48
2023-02-27T10:44:03.706Z,81.07
2023-02-27T10:45:03.664Z,81.17
2023-02-27T10:46:04.598Z,81.17
2023-02-27T10:47:03.758Z,81.37
2023-02-27T10:48:03.627Z,81.58
2023-02-27T10:49:03.624Z,81.48
2023-02-27T10:50:03.642Z,81.17
2023-02-27T10:51:03.642Z,81.07
2023-02-27T10:52:03.594Z,81.03
2023-02-27T10:53:03.683Z,81.17
2023-02-27T10:54:03.568Z,81.17
2023-02-27T10:55:03.577Z,80.96
2023-02-27T10:56:03.767Z,81.41
2023-02-27T10:57:03.536Z,81.37
2023-02-27T10:58:03.520Z,81.68
2023-02-27T10:59:03.565Z,81.89
2023-02-27T11:00:03.498Z,81.62
2023-02-27T11:01:04.048Z,81.79
2023-02-27T11:02:04.044Z,81.89
2023-02-27T11:03:03.480Z,81.27
2023-02-27T11:04:03.486Z,81.37
2023-02-27T11:05:03.651Z,81.37
2023-02-27T11:06:03.541Z,81.27
2023-02-27T11:07:03.514Z,81.27
2023-02-27T11:08:03.407Z,81.27
2023-02-27T11:09:03.412Z,81.34
2023-02-27T11:10:03.384Z,80.76
2023-02-27T11:11:03.641Z,81.17
2023-02-27T11:12:03.372Z,81.37
2023-02-27T11:13:04.088Z,81.27
2023-02-27T11:14:03.346Z,81.48
2023-02-27T11:15:03.342Z,81.21
2023-02-27T11:16:03.558Z,81.51
2023-02-27T11:17:03.428Z,81.68
2023-02-27T11:18:03.290Z,81.79
2023-02-27T11:19:03.281Z,81.68
2023-02-27T11:20:03.283Z,81.48
2023-02-27T11:21:03.275Z,81.27
2023-02-27T11:22:03.282Z,81.17
2023-02-27T11:23:03.376Z,81.37
2023-02-27T11:24:03.250Z,81.17
2023-02-27T11:25:04.257Z,80.86
2023-02-27T11:26:03.208Z,81.07
2023-02-27T11:27:03.201Z,80.86
2023-02-27T11:28:03.179Z,81.07
2023-02-27T11:29:03.609Z,81.17
2023-02-27T11:30:03.156Z,80.86
2023-02-27T11:31:04.129Z,81.31
2023-02-27T11:32:04.251Z,81.07
2023-02-27T11:33:03.195Z,81.31
2023-02-27T11:34:03.147Z,81.21
2023-02-27T11:35:03.269Z,81.21
2023-02-27T11:36:04.161Z,81.21
2023-02-27T11:37:03.266Z,81.66
2023-02-27T11:38:04.142Z,81.35
2023-02-27T11:39:03.113Z,81.14
2023-02-27T11:40:03.099Z,81.24
2023-02-27T11:41:03.262Z,81.14
2023-02-27T11:42:03.031Z,81.04
2023-02-27T11:43:03.067Z,81.18
2023-02-27T11:44:03.010Z,81.24
2023-02-27T11:45:02.998Z,81.59
2023-02-27T11:46:22.210Z,81.66
2023-02-27T11:47:04.221Z,81.56
2023-02-27T11:48:02.966Z,81.66
2023-02-27T11:49:02.949Z,81.35
2023-02-27T11:50:02.944Z,81.35
2023-02-27T11:51:02.964Z,81.56
2023-02-27T11:52:02.918Z,81.45
2023-02-27T11:53:03.120Z,81.76
2023-02-27T11:54:02.920Z,81.93
2023-02-27T11:55:02.883Z,81.62
2023-02-27T11:56:02.960Z,81.41
2023-02-27T11:57:02.861Z,81.72
2023-02-27T11:58:02.851Z,81.41
2023-02-27T11:59:03.104Z,81.72
2023-02-27T12:00:02.872Z,81.41
2023-02-27T12:01:02.818Z,81.21
2023-02-27T12:02:02.823Z,81.00
2023-02-27T12:03:03.111Z,81.31
2023-02-27T12:04:03.163Z,81.10
2023-02-27T12:05:02.937Z,81.14
2023-02-27T12:06:02.934Z,80.69
2023-02-27T12:08:22.856Z,80.83
2023-02-27T12:09:22.788Z,80.73
2023-02-27T12:10:30.812Z,81.04
2023-02-27T12:14:09.710Z,81.01
2023-02-27T12:15:08.864Z,81.52
2023-02-27T12:16:08.852Z,81.73
2023-02-27T12:17:08.793Z,81.84
2023-02-27T12:18:08.749Z,81.84
2023-02-27T12:19:08.799Z,81.42
2023-02-27T12:20:08.722Z,82.00
2023-02-27T12:21:08.714Z,81.59
2023-02-27T12:22:08.828Z,82.04
2023-02-27T12:23:08.701Z,81.73
2023-02-27T12:24:08.709Z,81.73
2023-02-27T12:25:08.888Z,82.15
2023-02-27T12:26:08.655Z,81.84
2023-02-27T12:27:08.669Z,81.63
2023-02-27T12:28:08.659Z,81.94
2023-02-27T12:29:09.278Z,82.00
2023-02-27T12:30:08.633Z,81.94
2023-02-27T12:31:08.690Z,81.84
2023-02-27T12:32:08.771Z,81.52
2023-02-27T12:33:08.593Z,81.52
2023-02-27T12:34:08.874Z,81.52
2023-02-27T12:35:08.572Z,81.52
2023-02-27T12:36:08.594Z,81.63
2023-02-27T12:37:08.553Z,81.84
2023-02-27T12:38:08.529Z,82.04
2023-02-27T12:39:08.511Z,82.04
2023-02-27T12:40:08.699Z,81.73
2023-02-27T12:41:08.509Z,81.77
2023-02-27T12:42:08.477Z,81.77
2023-02-27T12:43:10.829Z,81.67
2023-02-27T12:44:08.459Z,81.87
2023-02-27T12:45:08.440Z,81.87
2023-02-27T12:46:08.545Z,81.77
2023-02-27T12:47:08.417Z,81.77
2023-02-27T12:48:08.403Z,82.22
2023-02-27T12:49:09.453Z,82.12
2023-02-27T12:50:08.398Z,81.87
2023-02-27T12:51:08.361Z,81.77
2023-02-27T12:52:08.397Z,81.77
2023-02-27T12:53:08.338Z,81.87
2023-02-27T12:54:08.352Z,82.08
2023-02-27T12:55:08.345Z,82.08
2023-02-27T12:56:08.309Z,82.08
2023-02-27T12:57:08.326Z,81.87
2023-02-27T12:58:08.411Z,81.87